createdAt,value
2023-02-25T00:02:03.508Z,3.34
2023-02-25T00:04:32.904Z,3.34
2023-02-25T00:07:22.924Z,3.34
2023-02-25T00:09:54.341Z,3.35
2023-02-25T00:12:24.283Z,3.37
2023-02-25T00:14:52.904Z,3.38
2023-02-25T00:17:21.209Z,3.38
2023-02-25T00:19:49.313Z,3.39
2023-02-25T00:22:21.449Z,3.42
2023-02-25T00:24:56.139Z,3.43
2023-02-25T00:27:25.595Z,3.41
2023-02-25T00:29:54.729Z,3.41
2023-02-25T00:32:23.533Z,3.41
2023-02-25T00:34:52.498Z,3.42
2023-02-25T00:37:21.540Z,3.42
2023-02-25T00:39:49.822Z,3.42
2023-02-25T00:42:18.973Z,3.42
2023-02-25T00:44:49.912Z,3.43
2023-02-25T00:47:19.415Z,3.44
2023-02-25T00:49:53.238Z,3.46
2023-02-25T00:52:21.502Z,3.47
2023-02-25T00:54:49.879Z,3.48
2023-02-25T00:57:18.365Z,3.49
2023-02-25T00:59:46.617Z,3.51
2023-02-25T01:02:14.808Z,3.53
2023-02-25T01:04:44.023Z,3.54
2023-02-25T01:07:14.331Z,3.54
2023-02-25T01:09:42.753Z,3.54
2023-02-25T01:12:10.965Z,3.55
2023-02-25T01:14:41.204Z,3.55
2023-02-25T01:17:09.789Z,3.55
2023-02-25T01:19:41.876Z,3.54
2023-02-25T01:22:10.761Z,3.54
2023-02-25T01:24:39.378Z,3.56
2023-02-25T01:27:08.741Z,3.56
2023-02-25T01:29:40.660Z,3.55
2023-02-25T01:32:13.968Z,3.55
2023-02-25T01:34:43.068Z,3.54
2023-02-25T01:37:11.983Z,3.56
2023-02-25T01:39:41.711Z,3.55
2023-02-25T01:42:19.314Z,3.54
2023-02-25T01:45:22.416Z,3.53
2023-02-25T01:47:58.700Z,3.52
2023-02-25T01:50:32.079Z,3.53
2023-02-25T01:53:00.426Z,3.53
2023-02-25T01:55:29.682Z,3.52
2023-02-25T01:57:58.982Z,3.52
2023-02-25T02:00:28.780Z,3.52
2023-02-25T02:02:57.712Z,3.53
2023-02-25T02:05:38.464Z,3.53
2023-02-25T02:08:06.702Z,3.52
2023-02-25T02:10:35.433Z,3.51
2023-02-25T02:13:05.637Z,3.51
2023-02-25T02:15:35.829Z,3.52
2023-02-25T02:18:04.566Z,3.52
2023-02-25T02:20:39.645Z,3.50
2023-02-25T02:23:17.243Z,3.50
2023-02-25T02:26:21.515Z,3.50
2023-02-25T02:29:14.473Z,3.51
2023-02-25T02:31:59.375Z,3.51
2023-02-25T02:34:46.234Z,3.52
2023-02-25T02:37:24.881Z,3.52
2023-02-25T02:40:24.581Z,3.51
2023-02-25T02:43:07.326Z,3.52
2023-02-25T02:45:40.168Z,3.52
2023-02-25T02:48:25.431Z,3.50
2023-02-25T02:50:59.050Z,3.50
2023-02-25T02:53:50.042Z,3.51
2023-02-25T02:56:19.026Z,3.53
2023-02-25T02:58:48.832Z,3.54
2023-02-25T03:01:30.323Z,3.54
2023-02-25T03:04:13.830Z,3.54
2023-02-25T03:06:47.066Z,3.56
2023-02-25T03:09:18.753Z,3.55
2023-02-25T03:11:48.845Z,3.55
2023-02-25T03:14:18.486Z,3.54
2023-02-25T03:17:32.108Z,3.54
2023-02-25T03:20:14.236Z,3.55
2023-02-25T03:22:45.486Z,3.55
2023-02-25T03:25:24.058Z,3.55
2023-02-25T03:27:53.776Z,3.55
2023-02-25T03:30:36.608Z,3.55
2023-02-25T03:33:11.986Z,3.56
2023-02-25T03:35:42.487Z,3.56
2023-02-25T03:38:18.302Z,3.56
2023-02-25T03:40:47.820Z,3.55
2023-02-25T03:43:18.351Z,3.57
2023-02-25T03:45:48.089Z,3.56
2023-02-25T03:48:17.235Z,3.54
2023-02-25T03:50:59.423Z,3.54
2023-02-25T03:53:47.754Z,3.53
2023-02-25T03:56:20.647Z,3.53
2023-02-25T03:58:49.012Z,3.53
2023-02-25T04:01:23.132Z,3.53
2023-02-25T04:03:51.425Z,3.53
2023-02-25T04:06:23.146Z,3.53
2023-02-25T04:08:52.034Z,3.55
2023-02-25T04:11:20.648Z,3.54
2023-02-25T04:13:49.398Z,3.54
2023-02-25T04:16:17.682Z,3.55
2023-02-25T04:18:49.114Z,3.54
2023-02-25T04:21:28.143Z,3.55
2023-02-25T04:23:56.457Z,3.56
2023-02-25T04:26:25.102Z,3.57
2023-02-25T04:28:57.451Z,3.58
2023-02-25T04:31:25.907Z,3.59
2023-02-25T04:33:54.299Z,3.60
2023-02-25T04:36:27.642Z,3.60
2023-02-25T04:38:56.268Z,3.59
2023-02-25T04:41:29.790Z,3.60
2023-02-25T04:43:59.793Z,3.60
2023-02-25T04:46:28.136Z,3.60
2023-02-25T04:48:56.686Z,3.60
2023-02-25T04:51:29.146Z,3.60
2023-02-25T04:53:57.421Z,3.59
2023-02-25T04:56:25.932Z,3.59
2023-02-25T04:58:54.608Z,3.61
2023-02-25T05:01:23.187Z,3.62
2023-02-25T05:03:57.235Z,3.61
2023-02-25T05:06:26.009Z,3.62
2023-02-25T05:08:59.247Z,3.62
2023-02-25T05:11:28.282Z,3.61
2023-02-25T05:13:58.469Z,3.62
2023-02-25T05:16:27.579Z,3.63
2023-02-25T05:18:56.111Z,3.63
2023-02-25T05:21:26.140Z,3.64
2023-02-25T05:23:55.161Z,3.66
2023-02-25T05:26:24.355Z,3.68
2023-02-25T05:28:55.126Z,3.68
2023-02-25T05:31:25.045Z,3.68
2023-02-25T05:33:53.625Z,3.68
2023-02-25T05:36:22.315Z,3.70
2023-02-25T05:38:55.308Z,3.69
2023-02-25T05:41:23.841Z,3.69
2023-02-25T05:43:52.025Z,3.70
2023-02-25T05:46:20.464Z,3.71
2023-02-25T05:48:49.918Z,3.71
2023-02-25T05:51:23.682Z,3.69
2023-02-25T05:53:52.448Z,3.69
2023-02-25T05:56:22.874Z,3.70
2023-02-25T05:58:57.130Z,3.72
2023-02-25T06:01:29.642Z,3.73
2023-02-25T06:03:59.129Z,3.74
2023-02-25T06:06:29.250Z,3.75
2023-02-25T06:08:58.568Z,3.75
2023-02-25T06:11:28.895Z,3.74
2023-02-25T06:13:57.413Z,3.75
2023-02-25T06:16:32.393Z,3.77
2023-02-25T06:19:02.580Z,3.79
2023-02-25T06:21:34.308Z,3.82
2023-02-25T06:24:05.470Z,3.85
2023-02-25T06:26:43.518Z,3.88
2023-02-25T06:29:11.763Z,3.89
2023-02-25T06:31:40.588Z,3.89
2023-02-25T06:34:09.001Z,3.91
2023-02-25T06:36:37.218Z,3.93
2023-02-25T06:39:05.431Z,3.94
2023-02-25T06:41:33.719Z,3.95
2023-02-25T06:44:04.434Z,3.95
2023-02-25T06:46:33.372Z,3.97
2023-02-25T06:49:04.558Z,3.99
2023-02-25T06:51:32.796Z,4.02
2023-02-25T06:54:06.129Z,4.05
2023-02-25T06:56:35.039Z,4.10
2023-02-25T06:59:03.290Z,4.16
2023-02-25T07:01:33.384Z,4.20
2023-02-25T07:04:01.840Z,4.24
2023-02-25T07:06:30.821Z,4.25
2023-02-25T07:08:58.931Z,4.26
2023-02-25T07:11:30.034Z,4.27
2023-02-25T07:13:58.484Z,4.28
2023-02-25T07:16:27.024Z,4.29
2023-02-25T07:18:57.895Z,4.32
2023-02-25T07:21:29.409Z,4.35
2023-02-25T07:23:58.198Z,4.35
2023-02-25T07:26:28.619Z,4.36
2023-02-25T07:28:58.307Z,4.38
2023-02-25T07:31:27.392Z,4.41
2023-02-25T07:33:56.264Z,4.43
2023-02-25T07:36:26.296Z,4.46
2023-02-25T07:38:54.921Z,4.50
2023-02-25T07:41:23.404Z,4.54
2023-02-25T07:43:52.782Z,4.58
2023-02-25T07:46:22.368Z,4.59
2023-02-25T07:48:53.707Z,4.61
2023-02-25T07:51:24.002Z,4.64
2023-02-25T07:53:54.018Z,4.67
2023-02-25T07:56:27.412Z,4.73
2023-02-25T07:58:56.747Z,4.75
2023-02-25T08:01:28.015Z,4.76
2023-02-25T08:04:04.412Z,4.79
2023-02-25T08:06:38.019Z,4.81
2023-02-25T08:09:07.326Z,4.85
2023-02-25T08:11:36.091Z,4.87
2023-02-25T08:14:05.789Z,4.89
2023-02-25T08:16:34.217Z,4.92
2023-02-25T08:19:02.599Z,4.94
2023-02-25T08:21:33.573Z,4.96
2023-02-25T08:24:05.321Z,4.97
2023-02-25T08:26:33.846Z,4.97
2023-02-25T08:29:02.339Z,4.99
2023-02-25T08:31:34.206Z,5.02
2023-02-25T08:34:05.426Z,5.04
2023-02-25T08:36:34.647Z,5.06
2023-02-25T08:39:03.369Z,5.09
2023-02-25T08:41:31.746Z,5.11
2023-02-25T08:44:01.408Z,5.13
2023-02-25T08:46:32.650Z,5.15
2023-02-25T08:49:01.410Z,5.17
2023-02-25T08:51:36.486Z,5.19
2023-02-25T08:54:10.164Z,5.22
2023-02-25T08:56:44.298Z,5.24
2023-02-25T08:59:14.704Z,5.25
2023-02-25T09:01:45.944Z,5.27
2023-02-25T09:04:16.529Z,5.30
2023-02-25T09:06:47.449Z,5.34
2023-02-25T09:09:16.341Z,5.36
2023-02-25T09:11:46.154Z,5.38
2023-02-25T09:14:16.872Z,5.42
2023-02-25T09:16:46.963Z,5.47
2023-02-25T09:19:18.578Z,5.54
2023-02-25T09:21:50.455Z,5.59
2023-02-25T09:24:19.974Z,5.69
2023-02-25T09:26:48.270Z,5.78
2023-02-25T09:29:17.053Z,5.88
2023-02-25T09:31:45.609Z,5.97
2023-02-25T09:34:14.201Z,6.07
2023-02-25T09:36:43.186Z,6.20
2023-02-25T09:39:11.721Z,6.38
2023-02-25T09:41:56.319Z,6.56
2023-02-25T09:44:28.835Z,6.73
2023-02-25T09:47:02.767Z,6.85
2023-02-25T09:49:37.954Z,7.00
2023-02-25T09:52:12.546Z,7.14
2023-02-25T09:54:48.330Z,7.29
2023-02-25T09:57:19.345Z,7.42
2023-02-25T09:59:48.656Z,7.54
2023-02-25T10:02:27.828Z,7.67
2023-02-25T10:05:33.477Z,7.81
2023-02-25T10:08:29.692Z,7.94
2023-02-25T10:11:04.279Z,8.06
2023-02-25T10:13:41.491Z,8.20
2023-02-25T10:16:14.394Z,8.38
2023-02-25T10:19:11.282Z,8.50
2023-02-25T10:22:10.130Z,8.63
2023-02-25T10:24:48.718Z,8.70
2023-02-25T10:27:22.571Z,8.84
2023-02-25T10:30:02.253Z,9.03
2023-02-25T10:32:37.215Z,9.17
2023-02-25T10:35:36.992Z,9.31
2023-02-25T10:38:06.058Z,9.41
2023-02-25T10:40:37.104Z,9.48
2023-02-25T10:43:26.390Z,9.52
2023-02-25T10:46:17.451Z,9.56
2023-02-25T10:48:52.409Z,9.68
2023-02-25T10:51:21.886Z,9.78
2023-02-25T10:53:58.213Z,9.84
2023-02-25T10:56:31.666Z,9.88
2023-02-25T10:59:05.475Z,9.96
2023-02-25T11:01:39.691Z,10.08
2023-02-25T11:04:12.584Z,10.22
2023-02-25T11:06:42.918Z,10.32
2023-02-25T11:09:20.792Z,10.40
2023-02-25T11:12:09.872Z,10.48
2023-02-25T11:14:39.830Z,10.57
2023-02-25T11:17:14.090Z,10.60
2023-02-25T11:20:00.062Z,10.60
2023-02-25T11:22:38.103Z,10.60
2023-02-25T11:25:14.532Z,10.57
2023-02-25T11:27:43.618Z,10.54
2023-02-25T11:30:15.658Z,10.50
2023-02-25T11:32:54.265Z,10.46
2023-02-25T11:35:30.801Z,10.37
2023-02-25T11:37:59.681Z,10.30
2023-02-25T11:40:30.046Z,10.30
2023-02-25T11:46:23.221Z,10.26
2023-02-25T11:49:00.607Z,10.25
2023-02-25T11:51:47.344Z,10.19
2023-02-25T11:54:26.053Z,10.15
2023-02-25T11:57:17.370Z,10.10
2023-02-25T11:59:54.386Z,10.04
2023-02-25T12:02:48.568Z,10.05
2023-02-25T12:05:46.146Z,10.11
2023-02-25T12:08:23.306Z,10.17
2023-02-25T12:11:32.323Z,10.15
2023-02-25T12:14:38.960Z,10.09
2023-02-25T12:17:32.347Z,10.04
2023-02-25T12:20:32.407Z,10.02
2023-02-25T12:23:29.982Z,9.95
2023-02-25T12:26:24.431Z,9.86
2023-02-25T12:29:10.793Z,9.79
2023-02-25T12:32:11.429Z,9.71
2023-02-25T12:35:17.906Z,9.60
2023-02-25T12:38:05.183Z,9.49
2023-02-25T12:40:36.792Z,9.44
2023-02-25T12:43:30.101Z,9.37
2023-02-25T12:46:11.041Z,9.30
2023-02-25T12:49:25.073Z,9.23
2023-02-25T12:52:18.773Z,9.17
2023-02-25T12:55:00.327Z,9.14
2023-02-25T12:57:33.224Z,9.11
2023-02-25T13:00:17.390Z,9.10
2023-02-25T13:03:03.722Z,9.10
2023-02-25T13:05:38.135Z,9.11
2023-02-25T13:08:12.686Z,9.10
2023-02-25T13:10:47.595Z,9.10
2023-02-25T13:13:49.770Z,9.09
2023-02-25T13:16:37.477Z,9.07
2023-02-25T13:19:27.128Z,9.07
2023-02-25T13:22:00.146Z,9.08
2023-02-25T13:24:40.389Z,9.09
2023-02-25T13:27:33.905Z,9.12
2023-02-25T13:30:12.165Z,9.14
2023-02-25T13:33:14.256Z,9.14
2023-02-25T13:36:02.172Z,9.13
2023-02-25T13:38:56.256Z,9.08
2023-02-25T13:41:37.765Z,9.03
2023-02-25T13:44:25.983Z,8.99
2023-02-25T13:47:07.176Z,8.98
2023-02-25T13:49:56.332Z,8.97
2023-02-25T13:52:35.163Z,8.94
2023-02-25T13:55:08.401Z,8.91
2023-02-25T13:58:22.197Z,8.89
2023-02-25T14:00:54.072Z,8.84
2023-02-25T14:03:29.047Z,8.81
2023-02-25T14:06:28.446Z,8.79
2023-02-25T14:09:07.766Z,8.74
2023-02-25T14:12:13.010Z,8.73
2023-02-25T14:15:09.035Z,8.71
2023-02-25T14:17:37.927Z,8.68
2023-02-25T14:20:21.697Z,8.65
2023-02-25T14:22:57.205Z,8.62
2023-02-25T14:25:58.344Z,8.62
2023-02-25T14:28:35.915Z,8.59
2023-02-25T14:31:23.920Z,8.58
2023-02-25T14:34:20.476Z,8.56
2023-02-25T14:37:14.958Z,8.53
2023-02-25T14:40:06.752Z,8.51
2023-02-25T14:43:01.838Z,8.52
2023-02-25T14:46:05.691Z,8.49
2023-02-25T14:49:15.573Z,8.47
2023-02-25T14:52:14.566Z,8.43
2023-02-25T14:54:52.565Z,8.40
2023-02-25T14:57:52.081Z,8.38
2023-02-25T15:00:25.693Z,8.39
2023-02-25T15:03:23.537Z,8.38
2023-02-25T15:06:25.854Z,8.37
2023-02-25T15:09:18.984Z,8.36
2023-02-25T15:12:07.107Z,8.31
2023-02-25T15:14:59.621Z,8.25
2023-02-25T15:18:08.482Z,8.23
2023-02-25T15:20:40.740Z,8.20
2023-02-25T15:23:16.724Z,8.19
2023-02-25T15:25:54.005Z,8.18
2023-02-25T15:28:29.119Z,8.18
2023-02-25T15:31:01.400Z,8.16
2023-02-25T15:33:36.244Z,8.16
2023-02-25T15:36:17.461Z,8.16
2023-02-25T15:38:53.662Z,8.13
2023-02-25T15:41:34.740Z,8.09
2023-02-25T15:44:09.060Z,8.05
2023-02-25T15:46:47.642Z,8.02
2023-02-25T15:49:28.806Z,7.98
2023-02-25T15:52:03.230Z,7.95
2023-02-25T15:54:37.743Z,7.93
2023-02-25T15:57:08.756Z,7.91
2023-02-25T15:59:41.421Z,7.89
2023-02-25T16:02:33.492Z,7.87
2023-02-25T16:05:15.563Z,7.85
2023-02-25T16:07:49.473Z,7.84
2023-02-25T16:10:38.702Z,7.82
2023-02-25T16:13:14.461Z,7.81
2023-02-25T16:15:48.545Z,7.82
2023-02-25T16:18:25.478Z,7.83
2023-02-25T16:21:00.186Z,7.84
2023-02-25T16:23:31.466Z,7.84
2023-02-25T16:26:18.213Z,7.85
2023-02-25T16:29:12.585Z,7.88
2023-02-25T16:32:03.448Z,7.88
2023-02-25T16:34:50.511Z,7.85
2023-02-25T16:37:27.613Z,7.80
2023-02-25T16:39:57.611Z,7.74
2023-02-25T16:42:26.118Z,7.70
2023-02-25T16:45:01.210Z,7.64
2023-02-25T16:47:31.095Z,7.60
2023-02-25T16:50:00.397Z,7.57
2023-02-25T16:52:34.136Z,7.56
2023-02-25T16:55:10.834Z,7.54
2023-02-25T16:57:40.358Z,7.53
2023-02-25T17:00:19.641Z,7.53
2023-02-25T17:02:52.774Z,7.52
2023-02-25T17:05:24.057Z,7.52
2023-02-25T17:08:03.093Z,7.53
2023-02-25T17:10:46.608Z,7.53
2023-02-25T17:13:36.886Z,7.52
2023-02-25T17:16:05.399Z,7.49
2023-02-25T17:18:51.305Z,7.46
2023-02-25T17:21:30.097Z,7.42
2023-02-25T17:23:58.484Z,7.40
2023-02-25T17:26:26.978Z,7.36
2023-02-25T17:29:01.619Z,7.30
2023-02-25T17:31:30.144Z,7.23
2023-02-25T17:34:03.644Z,7.14
2023-02-25T17:36:39.474Z,7.03
2023-02-25T17:39:12.425Z,6.93
2023-02-25T17:41:43.848Z,6.87
2023-02-25T17:44:32.906Z,6.79
2023-02-25T17:47:01.960Z,6.72
2023-02-25T17:49:32.581Z,6.64
2023-02-25T17:52:08.187Z,6.54
2023-02-25T17:54:37.342Z,6.43
2023-02-25T17:57:18.977Z,6.34
2023-02-25T17:59:56.911Z,6.27
2023-02-25T18:02:39.134Z,6.22
2023-02-25T18:05:11.341Z,6.19
2023-02-25T18:07:43.628Z,6.16
2023-02-25T18:10:50.354Z,6.10
2023-02-25T18:13:28.383Z,6.08
2023-02-25T18:16:25.057Z,6.08
2023-02-25T18:18:53.735Z,6.09
2023-02-25T18:21:22.150Z,6.10
2023-02-25T18:23:54.086Z,6.08
2023-02-25T18:26:24.641Z,6.08
2023-02-25T18:28:55.021Z,6.08
2023-02-25T18:31:23.342Z,6.08
2023-02-25T18:33:52.274Z,6.08
2023-02-25T18:36:26.971Z,6.05
2023-02-25T18:38:58.273Z,6.03
2023-02-25T18:41:26.846Z,6.01
2023-02-25T18:43:55.249Z,5.97
2023-02-25T18:46:24.090Z,5.94
2023-02-25T18:48:52.772Z,5.92
2023-02-25T18:51:20.970Z,5.90
2023-02-25T18:53:53.017Z,5.87
2023-02-25T18:56:23.122Z,5.86
2023-02-25T18:58:54.784Z,5.85
2023-02-25T19:01:25.278Z,5.83
2023-02-25T19:03:59.460Z,5.83
2023-02-25T19:06:29.792Z,5.84
2023-02-25T19:09:01.547Z,5.85
2023-02-25T19:11:31.696Z,5.85
2023-02-25T19:14:03.733Z,5.87
2023-02-25T19:16:32.369Z,5.86
2023-02-25T19:19:00.669Z,5.85
2023-02-25T19:21:30.202Z,5.83
2023-02-25T19:23:58.741Z,5.82
2023-02-25T19:26:27.237Z,5.81
2023-02-25T19:28:55.738Z,5.80
2023-02-25T19:31:24.002Z,5.80
2023-02-25T19:33:52.418Z,5.80
2023-02-25T19:36:20.706Z,5.80
2023-02-25T19:38:48.968Z,5.78
2023-02-25T19:41:17.633Z,5.79
2023-02-25T19:43:51.698Z,5.78
2023-02-25T19:46:21.030Z,5.78
2023-02-25T19:48:49.355Z,5.77
2023-02-25T19:51:17.630Z,5.77
2023-02-25T19:53:52.618Z,5.76
2023-02-25T19:56:21.683Z,5.75
2023-02-25T19:58:50.121Z,5.74
2023-02-25T20:01:19.108Z,5.72
2023-02-25T20:03:47.710Z,5.70
2023-02-25T20:06:15.932Z,5.66
2023-02-25T20:08:52.666Z,5.63
2023-02-25T20:11:23.624Z,5.58
2023-02-25T20:13:51.847Z,5.54
2023-02-25T20:16:24.144Z,5.52
2023-02-25T20:18:56.563Z,5.51
2023-02-25T20:21:26.042Z,5.50
2023-02-25T20:23:54.613Z,5.49
2023-02-25T20:26:24.771Z,5.48
2023-02-25T20:28:56.600Z,5.47
2023-02-25T20:31:25.840Z,5.43
2023-02-25T20:33:56.521Z,5.42
2023-02-25T20:36:28.892Z,5.39
2023-02-25T20:39:12.963Z,5.37
2023-02-25T20:41:45.312Z,5.36
2023-02-25T20:44:13.813Z,5.35
2023-02-25T20:46:43.226Z,5.33
2023-02-25T20:49:18.231Z,5.31
2023-02-25T20:51:47.598Z,5.30
2023-02-25T20:54:16.795Z,5.28
2023-02-25T20:56:54.044Z,5.24
2023-02-25T20:59:22.309Z,5.21
2023-02-25T21:01:50.574Z,5.18
2023-02-25T21:04:18.844Z,5.15
2023-02-25T21:06:48.146Z,5.12
2023-02-25T21:09:17.049Z,5.09
2023-02-25T21:11:46.198Z,5.08
2023-02-25T21:14:14.493Z,5.06
2023-02-25T21:16:42.844Z,5.03
2023-02-25T21:19:12.298Z,5.02
2023-02-25T21:21:40.835Z,4.98
2023-02-25T21:24:10.382Z,4.96
2023-02-25T21:26:41.409Z,4.91
2023-02-25T21:29:10.873Z,4.88
2023-02-25T21:31:40.036Z,4.85
2023-02-25T21:34:11.818Z,4.83
2023-02-25T21:36:40.936Z,4.83
2023-02-25T21:39:09.654Z,4.83
2023-02-25T21:41:44.289Z,4.83
2023-02-25T21:44:13.178Z,4.82
2023-02-25T21:46:41.449Z,4.81
2023-02-25T21:49:10.830Z,4.79
2023-02-25T21:51:40.364Z,4.77
2023-02-25T21:54:09.051Z,4.76
2023-02-25T21:56:37.735Z,4.76
2023-02-25T21:59:06.153Z,4.74
2023-02-25T22:01:36.872Z,4.73
2023-02-25T22:04:05.495Z,4.73
2023-02-25T22:06:35.246Z,4.70
2023-02-25T22:09:03.964Z,4.68
2023-02-25T22:11:33.993Z,4.66
2023-02-25T22:14:07.034Z,4.63
2023-02-25T22:16:37.081Z,4.59
2023-02-25T22:19:05.305Z,4.55
2023-02-25T22:21:34.324Z,4.51
2023-02-25T22:24:03.513Z,4.47
2023-02-25T22:26:33.423Z,4.43
2023-02-25T22:29:04.640Z,4.38
2023-02-25T22:31:34.348Z,4.34
2023-02-25T22:34:03.228Z,4.30
2023-02-25T22:36:31.539Z,4.25
2023-02-25T22:39:00.138Z,4.20
2023-02-25T22:41:29.243Z,4.16
2023-02-25T22:43:58.508Z,4.13
2023-02-25T22:46:31.463Z,4.10
2023-02-25T22:48:59.766Z,4.04
2023-02-25T22:51:32.992Z,3.99
2023-02-25T22:54:02.280Z,3.95
2023-02-25T22:56:30.622Z,3.92
2023-02-25T22:58:58.902Z,3.90
2023-02-25T23:01:27.426Z,3.86
2023-02-25T23:03:56.424Z,3.85
2023-02-25T23:06:37.485Z,3.82
2023-02-25T23:09:11.679Z,3.79
2023-02-25T23:11:43.598Z,3.78
2023-02-25T23:14:12.904Z,3.76
2023-02-25T23:16:43.296Z,3.73
2023-02-25T23:19:15.806Z,3.68
2023-02-25T23:21:45.223Z,3.65
2023-02-25T23:24:18.773Z,3.61
2023-02-25T23:26:50.319Z,3.58
2023-02-25T23:29:18.724Z,3.55
2023-02-25T23:31:49.241Z,3.52
2023-02-25T23:34:20.019Z,3.49
2023-02-25T23:36:48.686Z,3.45
2023-02-25T23:39:17.207Z,3.40
2023-02-25T23:41:45.594Z,3.36
2023-02-25T23:44:14.463Z,3.33
2023-02-25T23:46:43.219Z,3.32
2023-02-25T23:49:12.915Z,3.30
2023-02-25T23:51:42.821Z,3.29
2023-02-25T23:54:12.332Z,3.27
2023-02-25T23:56:40.490Z,3.24
2023-02-25T23:59:11.056Z,3.20
